Planet Ace — 3EYF9 — position and weather

sailwx.info

Track history (hours):
 
Tides and Currents Weather Stations Pressure Air Temp Water Temp Dewpoint Dewpoint Depression Visibility Wind Speed Wind Dir Waves Ship Positions

Planet Ace

Last reported at 2017-Sep-30 01:50 UTC. Time now 2017-Dec-11 13:26 UTC.
Position N 01°17' E 103°45'.
Warning: this ship's position is months out of date.

Length 188 m; beam 28.2 m.

Type: Cargo ship. MMSI: 352168000.

Date/timePositionNaut miles runAvg speedWind from/ knotsBaromVisibWave heightAir tempDewpointWater temp
2017-Sep-30 01:50N 01°17' E 103°45'0 0.0
2017-Sep-30 01:29N 01°17' E 103°45'0 0.0
2017-Sep-30 00:56N 01°17' E 103°45'0 0.0
2017-Sep-30 00:26N 01°17' E 103°45'0 0.0
2017-Sep-29 23:59N 01°17' E 103°45'0 0.0
2017-Sep-29 23:30N 01°17' E 103°45'1 1.2
2017-Sep-29 23:00N 01°17' E 103°45'3 5.5
2017-Sep-29 22:31N 01°15' E 103°47'4 8.5
2017-Sep-29 22:00N 01°12' E 103°50'5 9.6
2017-Sep-29 21:31N 01°14' E 103°55'2 4.8
2017-Sep-29 21:00N 01°15' E 103°57'4 7.7
2017-Sep-29 20:30N 01°16' E 104°01'  
2017-Sep-21 19:39N 37°52' E 122°41'418.6
2017-Sep-21 19:28N 37°53' E 122°37'2118.5
2017-Sep-21 18:21N 38°03' E 122°14'618.6
2017-Sep-21 18:00N 38°04' E 122°06'2917.9
2017-Sep-21 16:22N 38°16' E 121°32'817.4
2017-Sep-21 15:56N 38°20' E 121°23'3812.1
2017-Sep-21 12:48N 38°34' E 120°38'516.8
2017-Sep-21 12:30N 38°34' E 120°32'1517.9
2017-Sep-21 11:41N 38°36' E 120°14'2018.4
2017-Sep-21 10:35N 38°40' E 119°48'318.6
2017-Sep-21 10:25N 38°41' E 119°44'3218.3
2017-Sep-21 08:41N 38°46' E 119°04'318.1
2017-Sep-21 08:30N 38°46' E 118°60'917.8
2017-Sep-21 08:00N 38°46' E 118°49'2816.7
2017-Sep-21 06:18N 38°51' E 118°13'614.8
2017-Sep-21 05:53N 38°54' E 118°06'511.1
2017-Sep-21 05:26N 38°56' E 117°60'511.1
2017-Sep-21 04:59N 38°57' E 117°54'510.6
2017-Sep-21 04:30N 38°59' E 117°47'3 4.5
2017-Sep-21 03:56N 39°01' E 117°46'0 0.0
2017-Sep-21 03:26N 39°01' E 117°46'0 0.0
2017-Sep-21 02:56N 39°01' E 117°46'0 0.0
2017-Sep-21 02:26N 39°01' E 117°46'0 0.0
2017-Sep-21 01:50N 39°01' E 117°46'0 0.0
2017-Sep-21 01:20N 39°01' E 117°46'0 0.0
2017-Sep-21 00:56N 39°01' E 117°46'0 0.0
2017-Sep-21 00:26N 39°01' E 117°46'0 0.0
2017-Sep-20 23:56N 39°01' E 117°46'0 0.0
2017-Sep-20 23:26N 39°01' E 117°46'0 0.0
2017-Sep-20 22:56N 39°01' E 117°46'0 0.0
2017-Sep-20 22:20N 39°01' E 117°46'0 0.0
2017-Sep-20 21:56N 39°01' E 117°46'0 0.0
2017-Sep-20 21:26N 39°01' E 117°46'0 0.0
2017-Sep-20 20:56N 39°01' E 117°46'0 0.0
2017-Sep-20 20:20N 39°01' E 117°46'0 0.0
2017-Sep-20 19:56N 39°01' E 117°46'0 0.0
2017-Sep-20 19:26N 39°01' E 117°46'0 0.1
2017-Sep-20 19:00N 39°01' E 117°46'1 1.8
2017-Sep-20 18:30N 39°00' E 117°47'4 7.7
2017-Sep-20 18:00N 38°58' E 117°50'  
Track history (hours):
 
Tides and Currents Weather Stations Pressure Air Temp Water Temp Dewpoint Dewpoint Depression Visibility Wind Speed Wind Dir Waves Ship Positions

Planet Ace

Last reported at 2017-Sep-30 01:50 UTC. Time now 2017-Dec-11 13:26 UTC.
Position N 01°17' E 103°45'.
Warning: this ship's position is months out of date.

Length 188 m; beam 28.2 m.

Type: Cargo ship. MMSI: 352168000.

Date/timePositionNaut miles runAvg speedWind from/ knotsBaromVisibWave heightAir tempDewpointWater temp
2017-Sep-30 01:50N 01°17' E 103°45'0 0.0
2017-Sep-30 01:29N 01°17' E 103°45'0 0.0
2017-Sep-30 00:56N 01°17' E 103°45'0 0.0
2017-Sep-30 00:26N 01°17' E 103°45'0 0.0
2017-Sep-29 23:59N 01°17' E 103°45'0 0.0
2017-Sep-29 23:30N 01°17' E 103°45'1 1.2
2017-Sep-29 23:00N 01°17' E 103°45'3 5.5
2017-Sep-29 22:31N 01°15' E 103°47'4 8.5
2017-Sep-29 22:00N 01°12' E 103°50'5 9.6
2017-Sep-29 21:31N 01°14' E 103°55'2 4.8
2017-Sep-29 21:00N 01°15' E 103°57'4 7.7
2017-Sep-29 20:30N 01°16' E 104°01'  
2017-Sep-21 19:39N 37°52' E 122°41'418.6
2017-Sep-21 19:28N 37°53' E 122°37'2118.5
2017-Sep-21 18:21N 38°03' E 122°14'618.6
2017-Sep-21 18:00N 38°04' E 122°06'2917.9
2017-Sep-21 16:22N 38°16' E 121°32'817.4
2017-Sep-21 15:56N 38°20' E 121°23'3812.1
2017-Sep-21 12:48N 38°34' E 120°38'516.8
2017-Sep-21 12:30N 38°34' E 120°32'1517.9
2017-Sep-21 11:41N 38°36' E 120°14'2018.4
2017-Sep-21 10:35N 38°40' E 119°48'318.6
2017-Sep-21 10:25N 38°41' E 119°44'3218.3
2017-Sep-21 08:41N 38°46' E 119°04'318.1
2017-Sep-21 08:30N 38°46' E 118°60'917.8
2017-Sep-21 08:00N 38°46' E 118°49'2816.7
2017-Sep-21 06:18N 38°51' E 118°13'614.8
2017-Sep-21 05:53N 38°54' E 118°06'511.1
2017-Sep-21 05:26N 38°56' E 117°60'511.1
2017-Sep-21 04:59N 38°57' E 117°54'510.6
2017-Sep-21 04:30N 38°59' E 117°47'3 4.5
2017-Sep-21 03:56N 39°01' E 117°46'0 0.0
2017-Sep-21 03:26N 39°01' E 117°46'0 0.0
2017-Sep-21 02:56N 39°01' E 117°46'0 0.0
2017-Sep-21 02:26N 39°01' E 117°46'0 0.0
2017-Sep-21 01:50N 39°01' E 117°46'0 0.0
2017-Sep-21 01:20N 39°01' E 117°46'0 0.0
2017-Sep-21 00:56N 39°01' E 117°46'0 0.0
2017-Sep-21 00:26N 39°01' E 117°46'0 0.0
2017-Sep-20 23:56N 39°01' E 117°46'0 0.0
2017-Sep-20 23:26N 39°01' E 117°46'0 0.0
2017-Sep-20 22:56N 39°01' E 117°46'0 0.0
2017-Sep-20 22:20N 39°01' E 117°46'0 0.0
2017-Sep-20 21:56N 39°01' E 117°46'0 0.0
2017-Sep-20 21:26N 39°01' E 117°46'0 0.0
2017-Sep-20 20:56N 39°01' E 117°46'0 0.0
2017-Sep-20 20:20N 39°01' E 117°46'0 0.0
2017-Sep-20 19:56N 39°01' E 117°46'0 0.0
2017-Sep-20 19:26N 39°01' E 117°46'0 0.1
2017-Sep-20 19:00N 39°01' E 117°46'1 1.8
2017-Sep-20 18:30N 39°00' E 117°47'4 7.7
2017-Sep-20 18:00N 38°58' E 117°50'  

Dump ship's entire track history